Time;durP1;ratioP1;P1;durP2;ratioP2;P2;SDS_P1;SDS_P2;PMS_P1;PMS_P2;Temp;Humidity;BMP_temperature;BMP_pressure;BME280_temperature;BME280_humidity;BME280_pressure;Samples;Min_cycle;Max_cycle;Signal;HPM_P1;HPM_P2
2022/12/03 00:00:23;;;;;;;5.60;3.22;;;12.60;89.80;;;;;;6220888;23;20340;-87
2022/12/03 00:02:48;;;;;;;6.40;2.70;;;12.60;89.70;;;;;;6221070;23;20015;-86
2022/12/03 00:05:14;;;;;;;4.70;2.30;;;12.70;89.70;;;;;;6221125;23;20023;-87
2022/12/03 00:07:40;;;;;;;6.32;2.90;;;12.70;89.60;;;;;;6221647;23;20004;-87
2022/12/03 00:10:06;;;;;;;4.10;2.53;;;12.80;89.50;;;;;;6220280;23;20125;-87
2022/12/03 00:12:32;;;;;;;4.80;2.40;;;12.80;89.10;;;;;;6247576;23;19996;-88
2022/12/03 00:14:57;;;;;;;5.22;2.85;;;12.80;89.10;;;;;;6247572;23;20046;-87
2022/12/03 00:17:23;;;;;;;5.55;3.10;;;12.90;89.30;;;;;;6221118;23;20096;-87
2022/12/03 00:19:49;;;;;;;5.00;2.30;;;12.80;89.30;;;;;;6221577;23;20031;-87
2022/12/03 00:22:14;;;;;;;4.95;2.70;;;12.90;89.30;;;;;;6248328;23;20380;-88
2022/12/03 00:24:40;;;;;;;4.88;2.40;;;12.80;89.10;;;;;;6247610;23;20012;-88
2022/12/03 00:27:06;;;;;;;6.25;2.60;;;12.90;89.30;;;;;;6247653;23;20023;-87
2022/12/03 00:29:31;;;;;;;5.57;2.53;;;12.90;89.30;;;;;;6220513;23;20004;-86
2022/12/03 00:31:57;;;;;;;4.40;2.30;;;12.90;89.40;;;;;;6246919;23;20447;-88
2022/12/03 00:34:23;;;;;;;5.90;2.30;;;12.90;89.60;;;;;;6220567;23;20027;-86
2022/12/03 00:36:49;;;;;;;4.15;2.17;;;12.90;89.30;;;;;;6247346;23;20324;-87
2022/12/03 00:39:14;;;;;;;6.30;2.60;;;12.90;89.40;;;;;;6221051;23;20015;-87
2022/12/03 00:41:40;;;;;;;5.65;2.55;;;12.90;89.50;;;;;;6221282;23;20502;-86
2022/12/03 00:44:06;;;;;;;5.05;2.50;;;12.90;89.60;;;;;;6222350;23;20016;-82
2022/12/03 00:46:31;;;;;;;5.40;2.28;;;12.80;89.50;;;;;;6224518;23;20008;-87
2022/12/03 00:48:57;;;;;;;5.22;2.75;;;12.70;89.50;;;;;;6249025;23;20000;-87
2022/12/03 00:51:23;;;;;;;5.43;2.63;;;12.70;89.70;;;;;;6220320;23;20004;-86
2022/12/03 00:53:48;;;;;;;5.25;2.97;;;12.70;90.10;;;;;;6220404;23;20014;-86
2022/12/03 00:56:14;;;;;;;4.90;2.78;;;12.70;90.00;;;;;;6219970;23;20435;-87
2022/12/03 00:58:40;;;;;;;4.25;2.55;;;12.70;90.30;;;;;;6246643;23;20000;-87
2022/12/03 01:01:05;;;;;;;4.85;3.08;;;12.60;90.10;;;;;;6220983;23;20000;-87
2022/12/03 01:03:31;;;;;;;5.68;3.25;;;12.60;90.20;;;;;;6224458;23;20082;-87
2022/12/03 01:05:57;;;;;;;5.63;3.10;;;12.50;90.20;;;;;;6227150;23;20018;-87
2022/12/03 01:08:23;;;;;;;4.85;2.97;;;12.60;90.30;;;;;;6257450;23;20126;-86
2022/12/03 01:10:48;;;;;;;8.73;4.05;;;12.50;90.30;;;;;;6274100;22;19992;-85
2022/12/03 01:13:14;;;;;;;6.78;3.53;;;12.50;90.40;;;;;;6273940;22;19992;-83
2022/12/03 01:15:40;;;;;;;6.85;3.97;;;12.50;90.50;;;;;;6227093;23;20436;-86
2022/12/03 01:18:06;;;;;;;7.53;3.65;;;12.50;90.60;;;;;;6222447;23;20012;-87
2022/12/03 01:20:31;;;;;;;9.02;4.13;;;12.40;90.70;;;;;;6249375;23;20027;-86
2022/12/03 01:22:57;;;;;;;6.70;4.00;;;12.40;90.90;;;;;;6222195;23;20008;-86
2022/12/03 01:25:23;;;;;;;7.32;4.10;;;12.40;90.90;;;;;;6248249;23;20008;-86
2022/12/03 01:27:48;;;;;;;8.07;4.32;;;12.40;91.00;;;;;;6268005;23;19996;-85
2022/12/03 01:30:14;;;;;;;6.85;3.72;;;12.40;91.10;;;;;;6273646;22;20012;-84
2022/12/03 01:32:40;;;;;;;7.68;3.83;;;12.30;91.00;;;;;;6224702;23;20011;-87
2022/12/03 01:35:06;;;;;;;5.43;3.45;;;12.30;91.10;;;;;;6253147;23;19996;-85
2022/12/03 01:37:31;;;;;;;5.38;3.30;;;12.20;91.10;;;;;;6225982;23;20060;-86
2022/12/03 01:39:57;;;;;;;7.57;4.50;;;12.20;91.40;;;;;;6247427;23;20000;-86
2022/12/03 01:42:30;;;;;;;6.85;4.20;;;12.20;91.50;;;;;;6246802;23;20035;-86
2022/12/03 01:44:57;;;;;;;6.13;3.75;;;12.20;91.40;;;;;;6220953;23;20459;-87
2022/12/03 01:47:32;;;;;;;7.00;4.32;;;12.10;91.40;;;;;;6247974;23;20432;-85
2022/12/03 01:50:05;;;;;;;7.85;4.47;;;12.10;91.50;;;;;;6247669;23;20003;-86
2022/12/03 01:52:35;;;;;;;7.57;4.53;;;12.10;91.60;;;;;;6220577;23;20008;-86
2022/12/03 01:55:06;;;;;;;6.93;4.53;;;12.10;91.80;;;;;;6220341;23;20035;-86
2022/12/03 01:57:41;;;;;;;7.03;4.20;;;12.10;91.80;;;;;;6246523;23;20007;-86
2022/12/03 02:00:13;;;;;;;5.47;3.40;;;12.10;92.00;;;;;;6247040;23;20011;-86
2022/12/03 02:02:39;;;;;;;5.55;3.40;;;12.10;91.80;;;;;;6220195;23;20088;-85
2022/12/03 02:05:16;;;;;;;5.85;3.50;;;12.00;92.10;;;;;;6247196;23;20008;-86
2022/12/03 02:07:43;;;;;;;5.63;3.00;;;12.00;92.30;;;;;;6220695;23;20008;-85
2022/12/03 02:10:12;;;;;;;5.80;3.13;;;11.90;92.30;;;;;;6246803;23;20023;-87
2022/12/03 02:12:45;;;;;;;5.35;2.90;;;11.90;92.50;;;;;;6221328;23;20091;-87
2022/12/03 02:15:12;;;;;;;6.80;3.00;;;11.90;92.50;;;;;;6247175;23;20011;-86
2022/12/03 02:17:38;;;;;;;4.82;2.85;;;11.90;92.50;;;;;;6246472;23;20000;-86
2022/12/03 02:20:09;;;;;;;5.10;2.78;;;11.90;92.60;;;;;;6219785;23;20008;-86
2022/12/03 02:22:49;;;;;;;4.68;2.70;;;11.90;92.40;;;;;;6246391;23;19997;-86
2022/12/03 02:25:24;;;;;;;5.10;2.60;;;11.90;92.40;;;;;;6246018;23;20018;-85
2022/12/03 02:27:53;;;;;;;5.43;2.60;;;11.90;92.40;;;;;;6246204;23;20004;-85
2022/12/03 02:30:20;;;;;;;5.55;2.20;;;11.90;92.70;;;;;;6246339;23;20024;-87
2022/12/03 02:32:47;;;;;;;4.32;2.00;;;11.90;92.70;;;;;;6219195;23;20415;-88
2022/12/03 02:35:21;;;;;;;3.08;1.60;;;11.90;92.90;;;;;;6246804;23;20042;-87
2022/12/03 02:37:51;;;;;;;3.97;1.45;;;11.80;92.80;;;;;;6249490;23;20337;-86
2022/12/03 02:40:23;;;;;;;2.42;1.40;;;11.80;92.90;;;;;;6249152;23;20000;-85
2022/12/03 02:42:52;;;;;;;3.65;1.63;;;11.60;93.10;;;;;;6247991;23;20459;-86
2022/12/03 02:45:22;;;;;;;3.78;2.03;;;11.60;93.10;;;;;;6246446;23;20012;-87
2022/12/03 02:48:16;;;;;;;5.75;2.08;;;11.60;93.10;;;;;;6246099;23;20050;-87
2022/12/03 02:50:53;;;;;;;3.85;1.75;;;11.60;92.70;;;;;;6245828;23;20008;-86
2022/12/03 02:53:29;;;;;;;6.35;2.38;;;11.60;92.70;;;;;;6219640;23;20313;-87
2022/12/03 02:55:57;;;;;;;5.75;2.30;;;11.60;93.70;;;;;;6221546;23;20066;-86
2022/12/03 02:58:24;;;;;;;4.35;2.13;;;11.60;93.70;;;;;;6255286;23;20007;-87
2022/12/03 03:00:52;;;;;;;4.63;2.30;;;11.60;93.80;;;;;;6268735;23;20000;-87
2022/12/03 03:03:20;;;;;;;4.90;2.50;;;11.60;93.90;;;;;;6275412;22;19989;-84
2022/12/03 03:05:47;;;;;;;6.03;2.85;;;11.70;94.00;;;;;;6248182;23;20020;-84
2022/12/03 03:08:13;;;;;;;7.88;2.80;;;11.70;93.90;;;;;;6257066;23;20096;-86
2022/12/03 03:10:40;;;;;;;5.07;2.47;;;11.80;94.00;;;;;;6221684;23;20012;-86
2022/12/03 03:13:09;;;;;;;4.82;2.63;;;11.80;94.00;;;;;;6250541;23;20027;-84
2022/12/03 03:15:37;;;;;;;4.90;2.30;;;11.80;94.20;;;;;;6266759;23;20030;-84
2022/12/03 03:18:04;;;;;;;4.80;2.40;;;11.70;94.60;;;;;;6228330;23;20035;-85
2022/12/03 03:20:30;;;;;;;5.95;2.50;;;11.70;94.40;;;;;;6253358;23;20003;-87
2022/12/03 03:23:10;;;;;;;5.68;2.40;;;11.60;94.50;;;;;;6225340;23;20008;-87
2022/12/03 03:25:37;;;;;;;6.85;3.28;;;11.60;93.70;;;;;;6223536;23;20016;-87
2022/12/03 03:28:03;;;;;;;3.55;1.85;;;11.50;94.70;;;;;;6251330;23;20060;-88
2022/12/03 03:30:29;;;;;;;3.53;1.83;;;11.50;94.90;;;;;;6253732;23;20052;-87
2022/12/03 03:32:55;;;;;;;3.95;1.80;;;11.40;94.70;;;;;;6255027;23;19996;-85
2022/12/03 03:35:22;;;;;;;3.13;1.67;;;11.40;94.70;;;;;;6258387;23;20007;-85
2022/12/03 03:37:48;;;;;;;4.68;1.98;;;11.40;94.90;;;;;;6234096;23;20361;-86
2022/12/03 03:40:14;;;;;;;6.10;1.80;;;11.40;94.90;;;;;;6270125;23;19988;-84
2022/12/03 03:42:40;;;;;;;4.20;1.58;;;11.40;94.80;;;;;;6274847;23;20004;-86
2022/12/03 03:45:08;;;;;;;2.75;1.55;;;11.50;94.90;;;;;;6274882;22;20010;-84
2022/12/03 03:47:34;;;;;;;3.30;1.63;;;11.60;94.80;;;;;;6274370;23;20005;-86
2022/12/03 03:50:00;;;;;;;2.90;1.60;;;11.60;95.10;;;;;;6236642;23;20452;-87
2022/12/03 03:52:26;;;;;;;2.35;1.42;;;11.60;95.30;;;;;;6232836;23;20005;-86
2022/12/03 03:54:52;;;;;;;3.53;1.50;;;11.60;95.10;;;;;;6234645;23;20004;-86
2022/12/03 03:57:17;;;;;;;2.88;1.70;;;11.60;94.90;;;;;;6223446;23;20004;-87
2022/12/03 03:59:43;;;;;;;6.20;2.10;;;11.60;95.00;;;;;;6248080;23;20519;-86
2022/12/03 04:02:21;;;;;;;3.90;1.75;;;11.60;95.00;;;;;;6224335;23;20008;-88
2022/12/03 04:04:47;;;;;;;3.20;1.40;;;11.60;95.20;;;;;;6222778;23;20016;-88
2022/12/03 04:07:14;;;;;;;2.80;1.30;;;11.60;95.20;;;;;;6248905;23;20000;-88
2022/12/03 04:09:39;;;;;;;4.50;1.40;;;11.60;95.30;;;;;;6221316;23;20024;-88
2022/12/03 04:14:49;;;;;;;3.95;1.50;;;11.60;94.90;;;;;;6249467;23;20416;-85
2022/12/03 04:17:15;;;;;;;2.75;1.33;;;11.60;95.30;;;;;;6222116;23;20000;-87
2022/12/03 04:19:41;;;;;;;3.45;1.48;;;11.60;95.40;;;;;;6222160;23;20019;-87
2022/12/03 04:24:50;;;;;;;;;;;11.60;94.80;;;;;;6248501;23;20022;-87
2022/12/03 04:30:00;;;;;;;;;;;11.60;94.60;;;;;;6250908;23;20063;-87
2022/12/03 04:37:54;;;;;;;4.75;1.33;;;11.40;94.80;;;;;;6253494;23;19905;-87
2022/12/03 04:43:04;;;;;;;3.55;1.40;;;11.40;94.80;;;;;;6248435;23;20340;-87
2022/12/03 04:45:30;;;;;;;2.13;1.02;;;11.50;95.60;;;;;;6220375;23;20016;-87
2022/12/03 04:47:56;;;;;;;2.17;1.17;;;11.50;95.60;;;;;;6220545;23;20039;-87
2022/12/03 04:50:21;;;;;;;2.10;1.08;;;11.50;95.60;;;;;;6247331;23;20746;-87
2022/12/03 04:52:47;;;;;;;1.92;1.20;;;11.50;95.50;;;;;;6220699;23;20005;-87
2022/12/03 04:55:13;;;;;;;2.95;1.30;;;11.50;95.40;;;;;;6220964;23;20004;-87
2022/12/03 04:57:38;;;;;;;3.75;1.38;;;11.50;95.60;;;;;;6247545;23;20032;-87
2022/12/03 05:00:05;;;;;;;5.00;2.22;;;11.50;95.60;;;;;;6220730;23;20486;-88
2022/12/03 05:02:31;;;;;;;3.63;1.52;;;11.50;95.40;;;;;;6247597;23;20007;-85
2022/12/03 05:04:56;;;;;;;3.22;1.40;;;11.50;95.50;;;;;;6247394;23;20012;-86
2022/12/03 05:07:22;;;;;;;3.08;1.30;;;11.50;95.50;;;;;;6249139;23;20023;-83
2022/12/03 05:09:48;;;;;;;3.28;1.30;;;11.40;95.60;;;;;;6251380;23;20020;-87
2022/12/03 05:12:13;;;;;;;2.33;1.17;;;11.40;95.90;;;;;;6254329;23;19996;-87
2022/12/03 05:14:39;;;;;;;5.32;1.80;;;11.40;95.60;;;;;;6257705;23;20000;-88
2022/12/03 05:17:05;;;;;;;5.00;1.58;;;11.30;95.70;;;;;;6246355;22;20002;-86
2022/12/03 05:22:15;;;;;;;2.83;1.38;;;11.30;95.10;;;;;;6271743;22;20027;-87
2022/12/03 05:24:40;;;;;;;4.55;1.73;;;11.40;95.80;;;;;;6227929;23;20016;-86
2022/12/03 05:27:06;;;;;;;3.17;1.27;;;11.40;95.70;;;;;;6222471;23;20004;-85
2022/12/03 05:29:32;;;;;;;3.40;1.35;;;11.40;95.80;;;;;;6247812;23;20332;-87
2022/12/03 05:31:57;;;;;;;3.22;1.60;;;11.40;95.90;;;;;;6248379;23;20007;-86
2022/12/03 05:34:23;;;;;;;2.38;1.17;;;11.40;95.80;;;;;;6247489;23;20008;-87
2022/12/03 05:36:49;;;;;;;3.72;1.50;;;11.40;95.70;;;;;;6220142;23;20039;-86
2022/12/03 05:39:15;;;;;;;2.85;1.10;;;11.40;95.90;;;;;;6246706;23;20016;-87
2022/12/03 05:44:24;;;;;;;1.98;0.90;;;11.50;95.20;;;;;;6247009;23;20023;-86
2022/12/03 05:46:50;;;;;;;4.50;1.00;;;11.50;95.90;;;;;;6248755;23;19996;-86
2022/12/03 05:49:16;;;;;;;1.00;0.80;;;11.50;95.80;;;;;;6220987;23;20012;-86
2022/12/03 05:51:42;;;;;;;1.83;1.00;;;11.60;95.80;;;;;;6221866;23;20008;-86
2022/12/03 05:54:07;;;;;;;2.20;0.90;;;11.60;95.80;;;;;;6223168;23;20004;-87
2022/12/03 05:56:33;;;;;;;1.60;0.70;;;11.60;95.70;;;;;;6250590;23;20333;-87
2022/12/03 05:58:59;;;;;;;2.28;0.82;;;11.70;95.70;;;;;;6224101;23;20004;-86
2022/12/03 06:01:24;;;;;;;2.22;1.00;;;11.70;95.70;;;;;;6250166;23;20008;-87
2022/12/03 06:03:50;;;;;;;2.20;0.93;;;11.70;95.70;;;;;;6249909;23;20079;-88
2022/12/03 06:06:16;;;;;;;2.30;1.20;;;11.70;95.50;;;;;;6252321;23;20000;-87
2022/12/03 06:08:42;;;;;;;3.67;1.42;;;11.80;95.60;;;;;;6250937;23;20023;-85
2022/12/03 06:11:07;;;;;;;4.53;1.65;;;11.80;95.50;;;;;;6256845;23;20004;-87
2022/12/03 06:13:33;;;;;;;6.68;1.83;;;11.90;95.40;;;;;;6250755;23;20030;-87
2022/12/03 06:15:59;;;;;;;7.07;1.90;;;11.90;95.60;;;;;;6250625;23;20075;-86
2022/12/03 06:18:24;;;;;;;4.63;1.60;;;11.90;95.50;;;;;;6223580;23;20455;-86
2022/12/03 06:20:50;;;;;;;2.53;1.20;;;11.90;95.40;;;;;;6249547;23;20355;-86
2022/12/03 06:23:16;;;;;;;3.17;1.27;;;11.90;95.30;;;;;;6249366;23;20011;-86
2022/12/03 06:25:41;;;;;;;1.95;0.80;;;11.90;95.30;;;;;;6254495;23;20023;-86
2022/12/03 06:28:07;;;;;;;1.90;1.00;;;12.00;95.40;;;;;;6255244;23;20424;-87
2022/12/03 06:30:34;;;;;;;1.75;1.00;;;12.00;95.40;;;;;;6249660;23;20004;-88
2022/12/03 06:33:00;;;;;;;3.55;1.20;;;11.90;95.30;;;;;;6234767;23;20004;-87
2022/12/03 06:35:26;;;;;;;5.05;1.20;;;11.90;95.30;;;;;;6271322;23;19995;-85
2022/12/03 06:37:51;;;;;;;2.03;1.10;;;11.90;95.40;;;;;;6266175;23;20027;-87
2022/12/03 06:40:17;;;;;;;2.30;0.90;;;11.90;95.30;;;;;;6226905;23;20020;-86
2022/12/03 06:42:43;;;;;;;1.10;0.70;;;11.90;95.50;;;;;;6249541;23;20052;-87
2022/12/03 06:45:10;;;;;;;5.25;1.00;;;11.90;95.30;;;;;;6247397;23;20043;-87
2022/12/03 06:47:35;;;;;;;2.60;1.20;;;11.90;95.30;;;;;;6247718;23;19996;-86
2022/12/03 06:50:01;;;;;;;2.53;1.00;;;11.90;95.30;;;;;;6220552;23;20130;-87
2022/12/03 06:52:27;;;;;;;2.05;0.90;;;11.90;95.30;;;;;;6247934;23;20026;-84
2022/12/03 06:54:54;;;;;;;2.00;1.10;;;11.90;95.30;;;;;;6248130;23;20480;-88
2022/12/03 06:57:20;;;;;;;3.08;0.93;;;11.90;94.70;;;;;;6247615;23;19996;-86
2022/12/03 06:59:45;;;;;;;3.13;1.15;;;11.90;95.20;;;;;;6221542;23;20009;-86
2022/12/03 07:02:11;;;;;;;2.22;0.90;;;11.90;95.20;;;;;;6220644;23;20014;-85
2022/12/03 07:04:37;;;;;;;2.53;1.02;;;11.90;95.30;;;;;;6220277;23;20020;-87
2022/12/03 07:07:03;;;;;;;1.65;0.90;;;11.90;95.40;;;;;;6247447;23;20506;-86
2022/12/03 07:09:28;;;;;;;3.13;1.35;;;11.90;95.40;;;;;;6247996;23;20027;-86
2022/12/03 07:11:54;;;;;;;2.20;1.10;;;11.90;95.50;;;;;;6250988;23;20392;-87
2022/12/03 07:14:20;;;;;;;5.72;1.17;;;11.90;95.30;;;;;;6222306;23;20371;-86
2022/12/03 07:16:46;;;;;;;2.83;1.25;;;11.90;95.40;;;;;;6252085;23;20444;-86
2022/12/03 07:19:12;;;;;;;2.30;1.25;;;11.90;95.40;;;;;;6231072;23;20016;-86
2022/12/03 07:21:37;;;;;;;2.47;1.30;;;11.90;95.40;;;;;;6264632;23;20039;-86
2022/12/03 07:24:04;;;;;;;3.30;1.02;;;11.90;95.30;;;;;;6220960;23;20460;-86
2022/12/03 07:26:30;;;;;;;2.10;1.00;;;11.90;95.50;;;;;;6247733;23;20043;-86
2022/12/03 07:28:56;;;;;;;4.72;1.42;;;11.90;95.40;;;;;;6256100;23;20000;-87
2022/12/03 07:31:22;;;;;;;3.95;1.42;;;11.90;95.50;;;;;;6271398;22;19985;-86
2022/12/03 07:33:47;;;;;;;3.90;1.75;;;11.90;95.40;;;;;;6272496;22;19996;-86
2022/12/03 07:36:13;;;;;;;2.85;1.35;;;11.90;95.50;;;;;;6227477;23;20014;-87
2022/12/03 07:38:39;;;;;;;2.30;1.00;;;11.90;95.50;;;;;;6221358;23;20008;-87
2022/12/03 07:41:05;;;;;;;3.25;1.70;;;11.90;95.40;;;;;;6221949;23;20004;-86
2022/12/03 07:43:30;;;;;;;4.30;1.30;;;11.90;95.40;;;;;;6224408;23;20058;-86
2022/12/03 07:45:56;;;;;;;3.80;1.30;;;11.90;95.30;;;;;;6222113;23;20031;-86
2022/12/03 07:48:22;;;;;;;4.30;1.70;;;11.90;95.40;;;;;;6248277;23;20428;-87
2022/12/03 07:50:47;;;;;;;2.20;1.35;;;11.90;95.30;;;;;;6248671;23;20004;-86
2022/12/03 07:53:13;;;;;;;2.53;1.20;;;12.00;95.50;;;;;;6222696;23;20087;-87
2022/12/03 07:55:39;;;;;;;4.07;1.50;;;11.90;95.40;;;;;;6249346;23;20062;-87
2022/12/03 07:58:08;;;;;;;3.35;1.50;;;11.90;95.40;;;;;;6222663;23;20441;-87
2022/12/03 08:00:34;;;;;;;3.25;1.63;;;11.90;95.40;;;;;;6251444;23;20007;-86
2022/12/03 08:02:59;;;;;;;6.65;2.85;;;11.90;95.40;;;;;;6256472;23;20024;-86
2022/12/03 08:05:25;;;;;;;3.10;1.50;;;11.90;95.50;;;;;;6226853;23;20016;-86
2022/12/03 08:07:51;;;;;;;2.35;1.13;;;11.90;95.40;;;;;;6226171;23;20036;-88
2022/12/03 08:10:17;;;;;;;3.67;1.38;;;11.90;95.50;;;;;;6227182;23;20008;-87
2022/12/03 08:12:43;;;;;;;1.58;0.85;;;11.90;95.20;;;;;;6226218;23;20079;-87
2022/12/03 08:15:23;;;;;;;2.45;1.15;;;11.80;95.30;;;;;;6223841;23;20024;-88
2022/12/03 08:17:59;;;;;;;2.67;1.23;;;11.80;94.50;;;;;;6252020;23;20428;-87
2022/12/03 08:20:30;;;;;;;3.78;1.17;;;11.90;95.50;;;;;;6251004;23;20007;-85
2022/12/03 08:22:56;;;;;;;8.10;1.70;;;11.90;95.30;;;;;;6247975;23;20004;-78
2022/12/03 08:25:28;;;;;;;3.00;1.20;;;11.90;95.20;;;;;;6219081;23;20024;-78
2022/12/03 08:28:27;;;;;;;3.17;1.25;;;11.90;95.30;;;;;;6246271;23;20060;-75
2022/12/03 08:31:18;;;;;;;3.30;1.08;;;11.80;95.40;;;;;;6211639;23;20040;-80
2022/12/03 08:33:45;;;;;;;4.93;1.30;;;11.80;95.40;;;;;;6219444;23;20004;-80
2022/12/03 08:36:24;;;;;;;3.25;1.20;;;11.80;95.30;;;;;;6219720;23;20054;-79
2022/12/03 08:38:53;;;;;;;3.33;1.17;;;11.70;94.40;;;;;;6247032;23;20010;-85
2022/12/03 08:42:40;;;;;;;3.22;1.63;;;11.70;95.40;;;;;;6246130;23;20075;-83
2022/12/03 08:44:28;;;;;;;3.67;1.73;;;11.60;95.40;;;;;;6245189;23;20445;-82
2022/12/03 08:47:18;;;;;;;7.40;2.38;;;11.70;94.50;;;;;;6246334;23;20424;-84
2022/12/03 08:49:56;;;;;;;3.53;1.17;;;11.80;95.60;;;;;;6245289;23;20050;-84
2022/12/03 08:52:29;;;;;;;5.25;2.17;;;11.80;94.50;;;;;;6222657;23;20008;-82
2022/12/03 08:54:55;;;;;;;8.15;2.63;;;11.80;95.50;;;;;;6219960;23;20008;-83
2022/12/03 08:57:28;;;;;;;6.90;1.60;;;11.80;95.30;;;;;;6219779;23;20012;-82
2022/12/03 09:00:21;;;;;;;7.20;2.50;;;11.80;95.30;;;;;;6245786;23;20000;-83
2022/12/03 09:02:54;;;;;;;2.63;1.30;;;11.90;94.40;;;;;;6246619;23;20313;-84
2022/12/03 09:05:31;;;;;;;2.10;0.98;;;11.80;94.20;;;;;;6238986;23;20263;-83
2022/12/03 09:07:57;;;;;;;2.13;0.90;;;11.90;94.00;;;;;;6263337;23;19996;-84
2022/12/03 09:10:22;;;;;;;3.85;1.10;;;11.90;94.70;;;;;;6252351;23;20004;-84
2022/12/03 09:12:48;;;;;;;5.03;1.55;;;11.90;94.50;;;;;;6254466;23;20020;-86
2022/12/03 09:15:14;;;;;;;3.67;1.48;;;12.00;94.40;;;;;;6220407;23;20352;-84
2022/12/03 09:17:40;;;;;;;15.77;2.50;;;12.00;94.40;;;;;;6220611;23;20023;-87
2022/12/03 09:20:06;;;;;;;6.40;1.70;;;11.90;94.40;;;;;;6247116;23;20076;-86
2022/12/03 09:22:32;;;;;;;5.88;1.60;;;11.90;94.40;;;;;;6246306;23;20377;-86
2022/12/03 09:24:58;;;;;;;3.70;1.42;;;11.90;94.60;;;;;;6246547;23;20016;-85
2022/12/03 09:27:24;;;;;;;3.90;1.60;;;11.90;94.70;;;;;;6246405;23;20011;-84
2022/12/03 09:29:50;;;;;;;2.58;1.40;;;11.80;94.70;;;;;;6246561;23;20011;-82
2022/12/03 09:32:16;;;;;;;4.50;1.90;;;11.70;94.90;;;;;;6220027;23;20051;-84
2022/12/03 09:34:41;;;;;;;7.22;1.42;;;11.80;94.90;;;;;;6221369;23;20138;-81
2022/12/03 09:37:08;;;;;;;3.95;1.80;;;11.70;94.90;;;;;;6255062;23;19996;-84
2022/12/03 09:39:33;;;;;;;2.72;1.40;;;11.70;94.90;;;;;;6238755;23;20012;-86
2022/12/03 09:41:59;;;;;;;8.85;1.55;;;11.80;94.90;;;;;;6263786;23;20007;-80
2022/12/03 09:44:29;;;;;;;5.53;1.90;;;11.80;95.10;;;;;;6225713;23;20020;-82
2022/12/03 09:46:58;;;;;;;4.65;1.80;;;11.80;95.10;;;;;;6247438;23;20391;-85
2022/12/03 09:49:25;;;;;;;3.25;1.45;;;11.80;95.10;;;;;;6219943;23;20012;-84
2022/12/03 09:51:56;;;;;;;3.78;1.80;;;11.80;95.30;;;;;;6219356;23;20448;-86
2022/12/03 09:54:26;;;;;;;2.75;1.60;;;11.90;95.30;;;;;;6246733;23;20000;-84
2022/12/03 09:56:56;;;;;;;4.70;2.00;;;11.90;95.50;;;;;;6246788;23;20000;-85
2022/12/03 09:59:25;;;;;;;6.65;3.28;;;11.90;95.40;;;;;;6246035;23;20083;-86
2022/12/03 10:01:52;;;;;;;10.98;2.30;;;12.00;95.50;;;;;;6246391;23;19996;-85
2022/12/03 10:04:18;;;;;;;4.82;2.15;;;12.00;95.60;;;;;;6246777;23;20025;-86
2022/12/03 10:06:44;;;;;;;4.75;2.00;;;12.00;95.50;;;;;;6247097;23;20004;-84
2022/12/03 10:09:12;;;;;;;5.05;2.03;;;12.00;95.50;;;;;;6251050;23;20023;-86
2022/12/03 10:11:38;;;;;;;4.93;2.08;;;12.00;95.70;;;;;;6223206;23;20081;-85
2022/12/03 10:14:04;;;;;;;3.67;2.10;;;12.00;95.50;;;;;;6220299;23;20012;-87
2022/12/03 10:16:30;;;;;;;10.85;3.58;;;12.10;95.70;;;;;;6247094;23;19996;-85
2022/12/03 10:18:59;;;;;;;5.82;2.53;;;12.10;95.50;;;;;;6252094;23;20053;-86
2022/12/03 10:21:30;;;;;;;7.32;4.22;;;12.10;95.70;;;;;;6253691;23;20099;-85
2022/12/03 10:24:34;;;;;;;7.03;3.38;;;12.10;95.70;;;;;;6246945;23;20034;-87
2022/12/03 10:27:21;;;;;;;7.80;3.80;;;12.10;95.70;;;;;;6159296;23;20013;-85
2022/12/03 10:29:59;;;;;;;5.53;2.90;;;12.10;94.90;;;;;;6185845;23;20001;-85
2022/12/03 10:32:42;;;;;;;22.17;13.15;;;12.10;94.90;;;;;;6203374;23;20099;-87
2022/12/03 10:35:12;;;;;;;6.68;4.15;;;12.00;95.70;;;;;;6245920;23;20007;-85
2022/12/03 10:37:59;;;;;;;4.50;2.70;;;12.00;95.80;;;;;;6218523;23;20449;-84
2022/12/03 10:40:31;;;;;;;9.50;2.92;;;12.00;95.00;;;;;;6219083;23;20008;-86
2022/12/03 10:43:18;;;;;;;5.38;2.40;;;12.00;95.80;;;;;;6218703;23;20516;-86
2022/12/03 10:46:08;;;;;;;6.25;2.70;;;11.90;94.80;;;;;;6246811;23;20039;-85
2022/12/03 10:48:34;;;;;;;4.72;1.90;;;11.90;95.70;;;;;;6245259;23;20004;-86
2022/12/03 10:51:03;;;;;;;4.55;1.77;;;11.90;95.60;;;;;;6219745;23;20083;-84
2022/12/03 10:53:32;;;;;;;7.00;2.00;;;11.90;95.70;;;;;;6218597;23;20035;-85
2022/12/03 10:56:02;;;;;;;3.42;1.70;;;11.80;95.80;;;;;;6219535;23;20035;-86
2022/12/03 10:58:30;;;;;;;6.10;1.98;;;11.80;95.80;;;;;;6218651;23;20340;-85
2022/12/03 11:00:57;;;;;;;3.85;1.83;;;11.80;95.90;;;;;;6218797;23;20004;-84
2022/12/03 11:03:29;;;;;;;4.45;1.48;;;11.80;95.90;;;;;;6245398;23;20007;-83
2022/12/03 11:05:56;;;;;;;4.75;2.10;;;11.80;95.90;;;;;;6245129;23;20008;-83
2022/12/03 11:08:29;;;;;;;5.93;1.77;;;11.80;95.60;;;;;;6218413;23;20023;-83
2022/12/03 11:10:56;;;;;;;4.07;1.50;;;11.90;95.70;;;;;;6218307;23;20008;-84
2022/12/03 11:13:27;;;;;;;4.43;2.50;;;11.90;95.70;;;;;;6218060;23;20012;-85
2022/12/03 11:15:53;;;;;;;4.03;1.60;;;12.10;95.60;;;;;;6245467;23;20028;-85
2022/12/03 11:18:37;;;;;;;5.32;1.88;;;12.20;95.50;;;;;;6219926;23;20031;-86
2022/12/03 11:21:06;;;;;;;;;;;12.30;95.50;;;;;;6220486;23;20015;-84
2022/12/03 11:23:44;;;;;;;7.20;3.35;;;12.30;94.50;;;;;;6220376;23;19965;-86
2022/12/03 11:26:28;;;;;;;3.53;1.90;;;12.40;95.30;;;;;;6247116;23;20012;-85
2022/12/03 11:28:58;;;;;;;5.57;1.98;;;12.40;95.30;;;;;;6219519;23;20005;-86
2022/12/03 11:31:38;;;;;;;4.15;1.80;;;12.50;95.50;;;;;;6220185;23;20004;-85
2022/12/03 11:34:19;;;;;;;4.28;1.80;;;12.50;95.10;;;;;;6246797;23;20000;-86
2022/12/03 11:37:10;;;;;;;5.45;2.10;;;12.50;95.10;;;;;;6247091;23;20000;-86
2022/12/03 11:39:51;;;;;;;4.18;2.28;;;12.60;94.10;;;;;;6219937;23;20024;-84
2022/12/03 11:42:25;;;;;;;6.28;2.00;;;12.80;95.00;;;;;;6248011;23;20004;-85
2022/12/03 11:45:03;;;;;;;4.80;2.33;;;13.00;94.20;;;;;;6219835;23;20028;-86
2022/12/03 11:47:39;;;;;;;3.90;2.00;;;13.30;94.50;;;;;;6219974;23;20095;-85
2022/12/03 11:50:24;;;;;;;6.57;2.40;;;13.50;94.20;;;;;;6247137;23;20057;-87
2022/12/03 11:53:15;;;;;;;4.65;2.42;;;13.80;93.60;;;;;;6246840;23;20050;-86
2022/12/03 11:55:47;;;;;;;3.60;2.10;;;13.90;92.90;;;;;;6219698;23;20004;-85
2022/12/03 11:58:26;;;;;;;5.95;3.40;;;14.00;93.00;;;;;;6220381;23;20432;-87
2022/12/03 12:00:54;;;;;;;7.40;4.10;;;14.00;93.00;;;;;;6247165;23;20004;-86
2022/12/03 12:03:31;;;;;;;5.93;2.28;;;14.00;93.10;;;;;;6247263;23;20008;-86
2022/12/03 12:06:12;;;;;;;5.43;2.35;;;14.00;93.10;;;;;;6220125;23;20047;-87
2022/12/03 12:08:40;;;;;;;3.92;2.30;;;14.00;93.20;;;;;;6249109;23;20039;-87
2022/12/03 12:11:25;;;;;;;6.10;2.70;;;13.90;93.10;;;;;;6253112;23;20000;-86
2022/12/03 12:13:57;;;;;;;5.28;2.35;;;13.90;93.10;;;;;;6224991;23;20012;-85
2022/12/03 12:16:39;;;;;;;5.22;2.53;;;13.80;93.00;;;;;;6248385;23;20008;-87
2022/12/03 12:19:30;;;;;;;5.82;3.08;;;13.70;93.00;;;;;;6248037;23;20024;-85
2022/12/03 12:22:17;;;;;;;5.82;3.67;;;13.70;93.00;;;;;;6219733;23;20035;-86
2022/12/03 12:24:47;;;;;;;6.38;2.70;;;13.60;93.10;;;;;;6251484;23;20019;-88
2022/12/03 12:27:29;;;;;;;6.07;3.13;;;13.60;93.20;;;;;;6235154;23;20005;-87
2022/12/03 12:29:59;;;;;;;5.35;3.38;;;13.70;93.10;;;;;;6223466;23;20110;-86
2022/12/03 12:32:25;;;;;;;5.28;2.88;;;13.80;93.40;;;;;;6247527;23;20016;-85
2022/12/03 12:34:56;;;;;;;6.25;3.00;;;13.90;93.10;;;;;;6219421;23;20016;-87
2022/12/03 12:37:30;;;;;;;6.72;3.10;;;14.10;93.00;;;;;;6220289;23;20106;-82
2022/12/03 12:39:56;;;;;;;;;;;14.30;92.70;;;;;;6250245;23;20012;-83
2022/12/03 12:42:36;;;;;;;5.85;3.25;;;14.50;92.40;;;;;;6256177;23;20327;-82
2022/12/03 12:45:20;;;;;;;5.28;3.00;;;14.70;92.40;;;;;;6256289;23;20016;-84
2022/12/03 12:47:49;;;;;;;6.07;3.50;;;14.90;92.30;;;;;;6218897;23;20023;-84
2022/12/03 12:50:17;;;;;;;5.07;3.28;;;15.10;92.10;;;;;;6245203;23;20004;-86
2022/12/03 12:52:55;;;;;;;4.95;3.30;;;15.10;91.90;;;;;;6219860;23;20503;-84
2022/12/03 12:55:22;;;;;;;6.22;3.80;;;15.00;91.80;;;;;;6220008;23;20008;-85
2022/12/03 12:57:49;;;;;;;12.85;3.70;;;14.90;92.00;;;;;;6246956;23;20007;-85
2022/12/03 13:00:21;;;;;;;7.65;3.40;;;14.90;92.00;;;;;;6228077;23;19999;-84
2022/12/03 13:02:49;;;;;;;9.15;3.35;;;14.90;91.90;;;;;;6249788;23;20031;-85
2022/12/03 13:05:14;;;;;;;5.40;3.40;;;14.90;92.10;;;;;;6219659;23;20503;-82
2022/12/03 13:07:41;;;;;;;5.47;3.35;;;14.90;92.00;;;;;;6245839;23;20027;-85
2022/12/03 13:10:37;;;;;;;6.55;4.40;;;14.90;92.10;;;;;;6219562;23;20020;-81
2022/12/03 13:13:22;;;;;;;6.88;4.78;;;14.80;92.00;;;;;;6218668;23;20008;-89
2022/12/03 13:15:51;;;;;;;7.28;4.65;;;14.70;92.20;;;;;;6246656;23;20003;-81
2022/12/03 13:18:25;;;;;;;7.55;4.75;;;14.60;92.20;;;;;;6245326;23;20011;-81
2022/12/03 13:20:52;;;;;;;7.82;5.32;;;14.50;92.50;;;;;;6218550;23;20026;-82